Time;durP1;ratioP1;P1;durP2;ratioP2;P2;SDS_P1;SDS_P2;PMS_P1;PMS_P2;Temp;Humidity;BMP_temperature;BMP_pressure;BME280_temperature;BME280_humidity;BME280_pressure;Samples;Min_cycle;Max_cycle;Signal;HPM_P1;HPM_P2
2022/11/14 00:00:14;;;;;;;103.43;48.97;;;;;;;;;;5114536;28;20031;-77
2022/11/14 00:03:18;;;;;;;145.40;68.10;;;;;;;;;;5114956;28;20036;-77
2022/11/14 00:06:23;;;;;;;134.48;64.32;;;;;;;;;;5114522;28;20039;-77
2022/11/14 00:09:29;;;;;;;128.20;61.80;;;;;;;;;;5114251;28;20044;-77
2022/11/14 00:12:33;;;;;;;117.07;59.15;;;;;;;;;;5115344;28;20044;-78
2022/11/14 00:15:37;;;;;;;101.80;53.60;;;;;;;;;;5113742;28;20036;-77
2022/11/14 00:18:41;;;;;;;111.10;55.33;;;;;;;;;;5113927;28;20617;-76
2022/11/14 00:21:45;;;;;;;109.25;55.20;;;;;;;;;;5113677;28;20036;-76
2022/11/14 00:24:48;;;;;;;114.88;54.70;;;;;;;;;;5114234;28;20473;-76
2022/11/14 00:27:52;;;;;;;115.28;55.10;;;;;;;;;;5114341;28;20031;-76
2022/11/14 00:30:56;;;;;;;106.83;54.80;;;;;;;;;;5122516;28;20043;-76
2022/11/14 00:34:00;;;;;;;115.88;56.50;;;;;;;;;;5134472;28;20035;-76
2022/11/14 00:37:03;;;;;;;125.82;58.35;;;;;;;;;;5114176;28;20496;-76
2022/11/14 00:40:08;;;;;;;100.70;49.17;;;;;;;;;;5124648;28;20047;-76
2022/11/14 00:43:14;;;;;;;90.10;41.40;;;;;;;;;;5114747;28;20453;-76
2022/11/14 00:46:18;;;;;;;96.90;42.10;;;;;;;;;;5114016;28;20043;-76
2022/11/14 00:49:21;;;;;;;78.22;41.15;;;;;;;;;;5113796;28;20421;-77
2022/11/14 00:52:26;;;;;;;78.90;39.55;;;;;;;;;;5137659;28;20040;-76
2022/11/14 00:55:30;;;;;;;78.57;37.38;;;;;;;;;;5115131;28;20044;-76
2022/11/14 00:58:35;;;;;;;99.03;44.40;;;;;;;;;;5114632;28;20035;-76
2022/11/14 01:01:39;;;;;;;150.80;64.00;;;;;;;;;;5113503;28;20714;-76
2022/11/14 01:04:43;;;;;;;138.82;64.70;;;;;;;;;;5115039;28;20032;-76
2022/11/14 01:07:47;;;;;;;90.78;42.53;;;;;;;;;;5115084;28;20500;-77
2022/11/14 01:10:50;;;;;;;76.47;38.85;;;;;;;;;;5114512;28;20035;-77
2022/11/14 01:13:55;;;;;;;83.18;39.25;;;;;;;;;;5113987;28;20488;-77
2022/11/14 01:16:58;;;;;;;90.32;42.70;;;;;;;;;;5114509;28;20396;-77
2022/11/14 01:20:04;;;;;;;82.13;41.13;;;;;;;;;;5114887;28;20040;-78
2022/11/14 01:23:10;;;;;;;85.50;41.70;;;;;;;;;;5116358;28;20040;-78
2022/11/14 01:26:14;;;;;;;84.10;42.50;;;;;;;;;;5113421;28;20396;-76
2022/11/14 01:29:18;;;;;;;80.00;42.10;;;;;;;;;;5114648;28;20052;-76
2022/11/14 01:32:22;;;;;;;86.53;42.30;;;;;;;;;;5121168;28;20268;-77
2022/11/14 01:35:27;;;;;;;81.88;41.85;;;;;;;;;;5117455;28;20043;-77
2022/11/14 01:38:31;;;;;;;86.85;43.38;;;;;;;;;;5117456;28;20032;-77
2022/11/14 01:41:35;;;;;;;83.88;40.80;;;;;;;;;;5117686;28;20040;-77
2022/11/14 01:44:59;;;;;;;81.00;40.85;;;;;;;;;;5107027;28;20048;-77
2022/11/14 01:48:03;;;;;;;78.95;39.50;;;;;;;;;;5116708;28;20039;-77
2022/11/14 01:51:33;;;;;;;76.05;39.13;;;;;;;;;;5116486;28;20044;-77
2022/11/14 01:54:45;;;;;;;77.63;38.45;;;;;;;;;;5121779;28;20047;-78
2022/11/14 01:57:50;;;;;;;81.20;38.92;;;;;;;;;;5116793;28;20389;-76
2022/11/14 02:00:55;;;;;;;76.25;39.00;;;;;;;;;;5116154;28;20040;-78
2022/11/14 02:04:01;;;;;;;89.20;45.03;;;;;;;;;;5116571;28;20044;-78
2022/11/14 02:07:06;;;;;;;86.55;40.83;;;;;;;;;;5119698;28;20401;-78
2022/11/14 02:10:20;;;;;;;85.72;41.67;;;;;;;;;;5117995;28;20048;-78
2022/11/14 02:13:24;;;;;;;85.07;42.72;;;;;;;;;;5116452;28;20032;-76
2022/11/14 02:16:28;;;;;;;88.57;42.40;;;;;;;;;;5116259;28;20032;-77
2022/11/14 02:19:44;;;;;;;87.68;43.35;;;;;;;;;;5116302;28;20035;-77
2022/11/14 02:22:49;;;;;;;78.50;39.92;;;;;;;;;;5117219;28;20043;-77
2022/11/14 02:25:52;;;;;;;71.47;35.78;;;;;;;;;;5115815;28;20051;-77
2022/11/14 02:28:56;;;;;;;61.33;32.15;;;;;;;;;;5118343;28;20043;-76
2022/11/14 02:32:02;;;;;;;53.37;29.93;;;;;;;;;;5117777;28;20044;-78
2022/11/14 02:35:06;;;;;;;59.65;30.40;;;;;;;;;;5116022;28;20261;-77
2022/11/14 02:38:10;;;;;;;62.17;32.63;;;;;;;;;;5115890;28;20047;-77
2022/11/14 02:41:15;;;;;;;68.90;31.58;;;;;;;;;;5115422;28;20040;-76
2022/11/14 02:44:18;;;;;;;82.50;44.10;;;;;;;;;;5115411;28;20040;-76
2022/11/14 02:47:26;;;;;;;71.47;34.42;;;;;;;;;;5117032;28;20044;-77
2022/11/14 02:50:30;;;;;;;65.70;31.33;;;;;;;;;;5115599;28;20040;-77
2022/11/14 02:53:35;;;;;;;64.97;32.13;;;;;;;;;;5116900;28;20381;-77
2022/11/14 02:56:38;;;;;;;62.53;31.35;;;;;;;;;;5117267;28;20284;-76
2022/11/14 02:59:42;;;;;;;57.10;29.90;;;;;;;;;;5115898;28;20032;-76
2022/11/14 03:02:45;;;;;;;57.45;29.30;;;;;;;;;;5115477;28;20047;-77
2022/11/14 03:05:52;;;;;;;53.55;29.02;;;;;;;;;;5115468;28;20396;-76
2022/11/14 03:08:55;;;;;;;63.22;30.90;;;;;;;;;;5116142;28;20035;-76
2022/11/14 03:11:59;;;;;;;62.58;29.40;;;;;;;;;;5114937;28;20036;-76
2022/11/14 03:15:04;;;;;;;56.17;28.95;;;;;;;;;;5115225;28;20036;-77
2022/11/14 03:18:08;;;;;;;60.88;27.95;;;;;;;;;;5115160;28;20043;-76
2022/11/14 03:21:15;;;;;;;47.42;26.60;;;;;;;;;;5115290;28;20036;-76
2022/11/14 03:24:19;;;;;;;50.00;27.73;;;;;;;;;;5114701;28;20032;-76
2022/11/14 03:27:23;;;;;;;55.15;28.80;;;;;;;;;;5115087;28;20036;-77
2022/11/14 03:30:26;;;;;;;53.50;27.70;;;;;;;;;;5114922;28;20393;-77
2022/11/14 03:33:31;;;;;;;67.18;35.30;;;;;;;;;;5114846;28;20039;-76
2022/11/14 03:36:35;;;;;;;56.03;28.52;;;;;;;;;;5102646;28;20035;-77
2022/11/14 03:39:40;;;;;;;58.55;26.15;;;;;;;;;;5115098;28;20040;-76
2022/11/14 03:42:43;;;;;;;49.40;28.15;;;;;;;;;;5114523;28;20412;-76
2022/11/14 03:45:47;;;;;;;47.50;25.52;;;;;;;;;;5115169;28;20504;-76
2022/11/14 03:48:51;;;;;;;51.15;27.50;;;;;;;;;;5115564;28;20035;-76
2022/11/14 03:51:56;;;;;;;48.10;25.38;;;;;;;;;;5114266;28;20032;-76
2022/11/14 03:55:00;;;;;;;49.93;24.37;;;;;;;;;;5115077;28;20389;-76
2022/11/14 03:58:04;;;;;;;55.40;26.10;;;;;;;;;;5101733;28;20048;-77
2022/11/14 04:01:09;;;;;;;65.97;33.13;;;;;;;;;;5114518;28;20036;-76
2022/11/14 04:04:14;;;;;;;74.43;37.05;;;;;;;;;;5114833;28;20260;-76
2022/11/14 04:07:18;;;;;;;74.35;34.85;;;;;;;;;;5113994;28;20047;-76
2022/11/14 04:10:21;;;;;;;67.55;34.47;;;;;;;;;;5114612;28;20032;-76
2022/11/14 04:13:27;;;;;;;71.15;34.75;;;;;;;;;;5113909;28;20040;-76
2022/11/14 04:16:31;;;;;;;68.00;35.40;;;;;;;;;;5113914;28;20035;-76
2022/11/14 04:19:35;;;;;;;72.30;33.45;;;;;;;;;;5114441;28;20040;-76
2022/11/14 04:22:40;;;;;;;70.80;34.05;;;;;;;;;;5114251;28;20036;-75
2022/11/14 04:25:45;;;;;;;55.10;28.83;;;;;;;;;;5115607;28;20377;-76
2022/11/14 04:28:49;;;;;;;49.03;27.27;;;;;;;;;;5115481;28;20039;-76
2022/11/14 04:31:52;;;;;;;48.47;25.77;;;;;;;;;;5114903;28;20389;-76
2022/11/14 04:34:56;;;;;;;39.45;23.85;;;;;;;;;;5113810;28;20040;-76
2022/11/14 04:38:00;;;;;;;53.63;24.33;;;;;;;;;;5113970;28;20052;-76
2022/11/14 04:41:04;;;;;;;53.05;25.58;;;;;;;;;;5113799;28;20032;-76
2022/11/14 04:44:08;;;;;;;59.33;26.38;;;;;;;;;;5113991;28;20036;-76
2022/11/14 04:47:13;;;;;;;48.40;26.38;;;;;;;;;;5114011;28;20040;-76
2022/11/14 04:50:18;;;;;;;54.57;26.60;;;;;;;;;;5101905;28;20044;-78
2022/11/14 04:53:23;;;;;;;57.33;30.40;;;;;;;;;;5113987;28;20472;-76
2022/11/14 04:56:28;;;;;;;63.22;32.25;;;;;;;;;;5114549;28;20436;-76
2022/11/14 04:59:32;;;;;;;57.67;30.65;;;;;;;;;;5114157;28;20480;-76
2022/11/14 05:02:36;;;;;;;58.37;31.70;;;;;;;;;;5115550;28;20483;-77
2022/11/14 05:05:40;;;;;;;54.22;31.00;;;;;;;;;;5115002;28;20284;-78
2022/11/14 05:08:45;;;;;;;59.97;33.58;;;;;;;;;;5119564;28;20048;-78
2022/11/14 05:11:49;;;;;;;67.83;33.20;;;;;;;;;;5119643;28;20035;-78
2022/11/14 05:14:53;;;;;;;68.55;34.85;;;;;;;;;;5120082;28;20035;-78
2022/11/14 05:17:57;;;;;;;60.08;31.52;;;;;;;;;;5118342;28;20052;-78
2022/11/14 05:21:02;;;;;;;57.80;30.45;;;;;;;;;;5118404;28;20044;-77
2022/11/14 05:24:06;;;;;;;62.45;32.10;;;;;;;;;;5105694;28;20044;-77
2022/11/14 05:27:09;;;;;;;90.90;37.67;;;;;;;;;;5105417;28;20044;-77
2022/11/14 05:30:14;;;;;;;82.40;38.83;;;;;;;;;;5117368;28;20044;-77
2022/11/14 05:33:19;;;;;;;94.65;36.00;;;;;;;;;;5120140;28;20051;-77
2022/11/14 05:36:22;;;;;;;94.72;35.10;;;;;;;;;;5117072;28;20048;-76
2022/11/14 05:39:27;;;;;;;101.23;40.83;;;;;;;;;;5104571;28;20047;-77
2022/11/14 05:42:31;;;;;;;94.57;36.65;;;;;;;;;;5117146;28;20039;-76
2022/11/14 05:45:35;;;;;;;110.13;38.57;;;;;;;;;;5116514;28;20040;-76
2022/11/14 05:48:39;;;;;;;86.28;37.63;;;;;;;;;;5116702;28;20043;-77
2022/11/14 05:51:43;;;;;;;108.60;39.60;;;;;;;;;;5116041;28;20040;-76
2022/11/14 05:54:47;;;;;;;99.20;40.78;;;;;;;;;;5116873;28;20477;-76
2022/11/14 05:57:50;;;;;;;104.80;42.60;;;;;;;;;;5116104;28;20048;-76
2022/11/14 06:01:04;;;;;;;106.10;41.45;;;;;;;;;;5103285;28;20043;-77
2022/11/14 06:04:08;;;;;;;91.63;39.78;;;;;;;;;;5115638;28;20048;-76
2022/11/14 06:07:13;;;;;;;88.95;39.15;;;;;;;;;;5116031;28;20044;-76
2022/11/14 06:10:17;;;;;;;86.07;42.90;;;;;;;;;;5116383;28;20077;-78
2022/11/14 06:13:25;;;;;;;109.00;45.60;;;;;;;;;;5115950;28;20400;-78
2022/11/14 06:16:29;;;;;;;99.95;49.25;;;;;;;;;;5116066;28;20043;-78
2022/11/14 06:19:33;;;;;;;102.05;49.80;;;;;;;;;;5116570;28;20039;-77
2022/11/14 06:22:39;;;;;;;103.65;50.95;;;;;;;;;;5116184;28;20036;-77
2022/11/14 06:25:43;;;;;;;87.78;46.35;;;;;;;;;;5116050;28;20039;-77
2022/11/14 06:28:49;;;;;;;95.03;46.13;;;;;;;;;;5115710;28;20047;-77
2022/11/14 06:31:53;;;;;;;89.05;38.00;;;;;;;;;;5114055;28;20264;-77
2022/11/14 06:34:57;;;;;;;80.88;38.40;;;;;;;;;;5116369;28;20032;-77
2022/11/14 06:38:01;;;;;;;96.88;47.33;;;;;;;;;;5122916;28;20040;-77
2022/11/14 06:41:14;;;;;;;95.03;45.72;;;;;;;;;;5115008;28;20452;-77
2022/11/14 06:44:18;;;;;;;92.43;45.67;;;;;;;;;;5115779;28;20043;-77
2022/11/14 06:47:22;;;;;;;88.07;43.72;;;;;;;;;;5115574;28;20031;-79
2022/11/14 06:50:26;;;;;;;75.73;37.47;;;;;;;;;;5115798;28;20043;-78
2022/11/14 06:53:33;;;;;;;91.03;40.88;;;;;;;;;;5115902;28;20272;-78
2022/11/14 06:56:37;;;;;;;80.97;39.65;;;;;;;;;;5114848;28;20429;-78
2022/11/14 06:59:41;;;;;;;81.65;40.95;;;;;;;;;;5114755;28;20043;-77
2022/11/14 07:02:46;;;;;;;99.40;42.07;;;;;;;;;;5115907;28;20040;-77
2022/11/14 07:05:50;;;;;;;75.00;41.50;;;;;;;;;;5120861;28;20292;-77
2022/11/14 07:08:55;;;;;;;84.80;43.10;;;;;;;;;;5113804;28;20048;-77
2022/11/14 07:11:59;;;;;;;75.90;41.30;;;;;;;;;;5115383;28;20492;-77
2022/11/14 07:15:04;;;;;;;95.65;44.35;;;;;;;;;;5115747;28;20381;-76
2022/11/14 07:18:08;;;;;;;86.65;46.58;;;;;;;;;;5114981;28;20047;-76
2022/11/14 07:21:13;;;;;;;86.25;42.67;;;;;;;;;;5115150;28;20044;-77
2022/11/14 07:24:17;;;;;;;89.60;45.57;;;;;;;;;;5116018;28;20488;-77
2022/11/14 07:27:22;;;;;;;86.70;48.75;;;;;;;;;;5115759;28;20039;-77
2022/11/14 07:30:25;;;;;;;90.65;46.17;;;;;;;;;;5102682;28;20036;-78
2022/11/14 07:33:30;;;;;;;104.80;52.35;;;;;;;;;;5116705;28;20341;-77
2022/11/14 07:36:34;;;;;;;111.07;54.88;;;;;;;;;;5116018;28;20036;-78
2022/11/14 07:39:39;;;;;;;97.68;47.33;;;;;;;;;;5115381;28;20036;-79
2022/11/14 07:42:43;;;;;;;96.33;46.20;;;;;;;;;;5114651;28;20040;-78
2022/11/14 07:45:48;;;;;;;87.00;45.92;;;;;;;;;;5114827;28;20396;-78
2022/11/14 07:48:53;;;;;;;99.22;47.15;;;;;;;;;;5114879;28;20039;-78
2022/11/14 07:51:57;;;;;;;102.50;49.80;;;;;;;;;;5114631;28;20040;-77
2022/11/14 07:55:01;;;;;;;93.03;48.60;;;;;;;;;;5114634;28;20039;-77
2022/11/14 07:58:05;;;;;;;91.47;47.05;;;;;;;;;;5114048;28;20036;-77
2022/11/14 08:01:11;;;;;;;76.55;43.10;;;;;;;;;;5114301;28;20477;-77
2022/11/14 08:04:17;;;;;;;73.03;40.33;;;;;;;;;;5114577;28;20047;-77
2022/11/14 08:07:22;;;;;;;73.05;40.13;;;;;;;;;;5114061;28;20047;-79
2022/11/14 08:10:25;;;;;;;74.50;39.33;;;;;;;;;;5114416;28;20040;-78
2022/11/14 08:13:31;;;;;;;73.95;37.95;;;;;;;;;;5113933;28;20049;-76
2022/11/14 08:16:35;;;;;;;73.63;41.38;;;;;;;;;;5114374;28;20035;-83
2022/11/14 08:19:40;;;;;;;86.90;41.93;;;;;;;;;;5114157;28;20031;-84
2022/11/14 08:22:43;;;;;;;77.15;42.08;;;;;;;;;;5115662;28;20040;-84
2022/11/14 08:25:47;;;;;;;85.53;43.35;;;;;;;;;;5114326;28;20051;-83
2022/11/14 08:28:53;;;;;;;85.80;44.50;;;;;;;;;;5115240;28;20043;-81
2022/11/14 08:31:58;;;;;;;72.97;41.35;;;;;;;;;;5116275;28;20036;-82
2022/11/14 08:35:02;;;;;;;66.65;35.53;;;;;;;;;;5117426;28;20044;-85
2022/11/14 08:38:06;;;;;;;70.13;37.23;;;;;;;;;;5115179;28;20048;-85
2022/11/14 08:41:11;;;;;;;62.92;34.38;;;;;;;;;;5117261;28;20268;-78
2022/11/14 08:44:15;;;;;;;69.13;35.00;;;;;;;;;;5109144;28;20040;-76
2022/11/14 08:47:19;;;;;;;58.42;33.75;;;;;;;;;;5119855;28;20464;-77
2022/11/14 08:50:22;;;;;;;51.05;31.10;;;;;;;;;;5119947;28;20040;-79
2022/11/14 08:53:27;;;;;;;51.90;30.33;;;;;;;;;;5109323;28;20484;-79
2022/11/14 08:56:30;;;;;;;47.33;29.35;;;;;;;;;;5117888;28;20035;-77
2022/11/14 08:59:34;;;;;;;73.57;38.47;;;;;;;;;;5118605;28;20044;-78
2022/11/14 09:02:38;;;;;;;57.60;32.72;;;;;;;;;;5118050;28;20052;-77
2022/11/14 09:05:42;;;;;;;82.28;47.58;;;;;;;;;;5118353;28;20059;-82
2022/11/14 09:08:47;;;;;;;82.10;45.53;;;;;;;;;;5118414;28;20043;-83
2022/11/14 09:11:51;;;;;;;91.45;49.92;;;;;;;;;;5120552;28;20031;-82
2022/11/14 09:14:54;;;;;;;87.38;46.92;;;;;;;;;;5114735;28;20039;-82
2022/11/14 09:17:58;;;;;;;83.53;47.70;;;;;;;;;;5120701;28;20061;-82
2022/11/14 09:21:06;;;;;;;81.90;41.30;;;;;;;;;;5119951;28;20039;-83
2022/11/14 09:24:10;;;;;;;74.03;41.13;;;;;;;;;;5121106;28;20036;-83
2022/11/14 09:27:16;;;;;;;66.87;38.53;;;;;;;;;;5108295;28;20040;-84
2022/11/14 09:30:21;;;;;;;56.13;32.88;;;;;;;;;;5119824;28;20047;-83
2022/11/14 09:33:25;;;;;;;63.55;35.75;;;;;;;;;;5120412;28;20035;-83
2022/11/14 09:36:28;;;;;;;68.07;36.65;;;;;;;;;;5107467;28;20044;-83
2022/11/14 09:39:36;;;;;;;63.67;34.50;;;;;;;;;;5120049;28;20043;-84
2022/11/14 09:42:49;;;;;;;57.25;32.40;;;;;;;;;;5119270;28;20040;-83
2022/11/14 09:45:54;;;;;;;55.58;33.17;;;;;;;;;;5117348;28;20048;-84
2022/11/14 09:48:58;;;;;;;61.90;34.23;;;;;;;;;;5120107;28;20047;-82
2022/11/14 09:52:29;;;;;;;55.63;34.60;;;;;;;;;;5120759;28;20039;-83
2022/11/14 09:55:34;;;;;;;59.28;35.42;;;;;;;;;;5123463;28;20060;-82
2022/11/14 09:58:40;;;;;;;63.65;36.13;;;;;;;;;;5128401;28;20035;-82
2022/11/14 10:01:46;;;;;;;56.83;33.40;;;;;;;;;;5128217;28;20031;-82
2022/11/14 10:05:10;;;;;;;53.38;31.20;;;;;;;;;;5128782;28;20036;-82
2022/11/14 10:08:38;;;;;;;53.90;30.80;;;;;;;;;;5127228;28;20035;-83
2022/11/14 10:12:15;;;;;;;53.58;31.92;;;;;;;;;;5111566;28;20039;-83
2022/11/14 10:15:28;;;;;;;50.25;30.67;;;;;;;;;;5113609;28;20489;-83
2022/11/14 10:19:10;;;;;;;49.92;29.90;;;;;;;;;;5120626;28;20035;-83
2022/11/14 10:22:28;;;;;;;49.45;28.15;;;;;;;;;;5119211;28;20039;-84
2022/11/14 10:25:54;;;;;;;41.65;26.27;;;;;;;;;;5108758;28;20043;-83
2022/11/14 10:28:58;;;;;;;47.88;25.33;;;;;;;;;;5124237;28;20032;-83
2022/11/14 10:32:24;;;;;;;44.33;25.23;;;;;;;;;;5127693;28;20043;-82
2022/11/14 10:35:36;;;;;;;43.13;24.88;;;;;;;;;;5128333;28;20055;-83
2022/11/14 10:39:06;;;;;;;37.13;23.63;;;;;;;;;;5122133;28;20392;-83
2022/11/14 10:42:18;;;;;;;38.63;25.77;;;;;;;;;;5129751;28;20036;-82
2022/11/14 10:45:28;;;;;;;43.25;24.92;;;;;;;;;;5108046;28;20044;-83
2022/11/14 10:48:37;;;;;;;40.67;24.45;;;;;;;;;;5121137;28;20036;-84
2022/11/14 10:51:45;;;;;;;42.53;24.30;;;;;;;;;;5113888;28;20047;-85
2022/11/14 10:54:58;;;;;;;46.17;25.25;;;;;;;;;;5108151;28;20488;-84
2022/11/14 10:58:24;;;;;;;39.22;24.58;;;;;;;;;;5117233;28;20051;-87
2022/11/14 11:01:54;;;;;;;37.67;24.27;;;;;;;;;;5115999;28;20035;-88
2022/11/14 11:05:14;;;;;;;42.88;22.33;;;;;;;;;;5103707;28;20052;-89
2022/11/14 11:11:52;;;;;;;37.00;21.83;;;;;;;;;;5116651;28;20051;-89
2022/11/14 11:15:17;;;;;;;36.97;21.58;;;;;;;;;;5124483;28;20040;-89
2022/11/14 11:18:35;;;;;;;41.42;21.05;;;;;;;;;;5115767;28;20036;-88
2022/11/14 11:21:51;;;;;;;32.25;19.95;;;;;;;;;;5115758;28;20031;-88
2022/11/14 11:24:55;;;;;;;32.50;20.63;;;;;;;;;;5105506;28;20043;-89
2022/11/14 11:28:19;;;;;;;33.95;20.83;;;;;;;;;;5113163;28;20487;-88
2022/11/14 11:31:23;;;;;;;36.25;20.80;;;;;;;;;;5117714;28;20044;-87
2022/11/14 11:34:31;;;;;;;38.65;22.70;;;;;;;;;;5121230;28;20392;-88
2022/11/14 11:37:41;;;;;;;45.15;24.00;;;;;;;;;;5114981;28;20485;-87
2022/11/14 11:40:50;;;;;;;36.75;23.08;;;;;;;;;;5102263;28;20396;-87
2022/11/14 11:43:58;;;;;;;46.40;23.48;;;;;;;;;;5102236;28;20047;-88
2022/11/14 11:47:07;;;;;;;40.50;24.25;;;;;;;;;;5114680;28;20035;-88
2022/11/14 11:50:20;;;;;;;33.47;19.45;;;;;;;;;;5115109;28;20044;-87
2022/11/14 11:53:33;;;;;;;39.28;23.70;;;;;;;;;;5103459;28;20381;-88
2022/11/14 11:56:38;;;;;;;38.72;22.20;;;;;;;;;;5114703;28;20036;-88
2022/11/14 11:59:47;;;;;;;36.88;22.52;;;;;;;;;;5114350;28;20047;-88
2022/11/14 12:03:01;;;;;;;47.10;24.55;;;;;;;;;;5101776;28;20477;-87
2022/11/14 12:06:16;;;;;;;41.22;24.77;;;;;;;;;;5117412;28;20043;-86
2022/11/14 12:09:31;;;;;;;43.92;21.65;;;;;;;;;;5102861;28;20040;-87
2022/11/14 12:12:44;;;;;;;35.20;20.20;;;;;;;;;;5123626;28;20043;-87
2022/11/14 12:16:02;;;;;;;40.53;23.63;;;;;;;;;;5116377;28;20044;-87
2022/11/14 12:19:16;;;;;;;42.03;22.73;;;;;;;;;;5117087;28;20132;-87
2022/11/14 12:22:32;;;;;;;37.50;22.98;;;;;;;;;;5116757;28;20032;-87
2022/11/14 12:25:47;;;;;;;37.72;22.40;;;;;;;;;;5119331;28;20361;-87
2022/11/14 12:29:05;;;;;;;35.17;22.77;;;;;;;;;;5104179;28;20485;-88
2022/11/14 12:32:27;;;;;;;38.50;21.80;;;;;;;;;;5104427;28;20040;-87
2022/11/14 12:35:33;;;;;;;37.58;22.95;;;;;;;;;;5114915;28;20040;-86
2022/11/14 12:39:19;;;;;;;37.33;22.27;;;;;;;;;;5116545;28;20032;-86
2022/11/14 12:42:23;;;;;;;36.95;20.90;;;;;;;;;;5103166;28;20397;-86
2022/11/14 12:45:57;;;;;;;31.55;19.80;;;;;;;;;;5115778;28;20048;-86
2022/11/14 12:49:20;;;;;;;40.95;21.88;;;;;;;;;;5115149;28;20032;-86
2022/11/14 12:52:39;;;;;;;43.25;24.88;;;;;;;;;;5116642;28;20048;-84
2022/11/14 12:56:06;;;;;;;38.20;23.92;;;;;;;;;;5116539;28;20044;-84
2022/11/14 12:59:16;;;;;;;34.92;22.92;;;;;;;;;;5118008;28;20047;-85
2022/11/14 13:02:28;;;;;;;36.35;23.35;;;;;;;;;;5116644;28;20036;-84
2022/11/14 13:05:46;;;;;;;37.65;24.33;;;;;;;;;;5115345;28;20036;-84
2022/11/14 13:08:56;;;;;;;41.45;23.83;;;;;;;;;;5117110;28;20040;-83
2022/11/14 13:22:45;;;;;;;36.13;23.20;;;;;;;;;;5119257;28;20048;-84
2022/11/14 13:26:09;;;;;;;36.33;22.77;;;;;;;;;;5120734;28;20035;-84
2022/11/14 13:29:35;;;;;;;41.03;25.83;;;;;;;;;;5128074;28;20051;-83
2022/11/14 13:32:43;;;;;;;42.63;24.48;;;;;;;;;;5130301;28;20027;-83
2022/11/14 13:35:50;;;;;;;44.25;24.73;;;;;;;;;;5123889;28;20044;-80
2022/11/14 13:39:23;;;;;;;40.80;23.85;;;;;;;;;;5117014;28;20043;-79
2022/11/14 13:42:47;;;;;;;48.75;28.55;;;;;;;;;;5125085;28;20473;-78
2022/11/14 13:46:23;;;;;;;46.70;28.95;;;;;;;;;;5104744;28;20043;-83
2022/11/14 13:49:45;;;;;;;53.10;27.73;;;;;;;;;;5117059;28;20047;-84
2022/11/14 13:52:50;;;;;;;52.17;31.30;;;;;;;;;;5117234;28;20477;-83
2022/11/14 13:56:03;;;;;;;48.17;30.90;;;;;;;;;;5123967;28;20028;-86
2022/11/14 13:59:59;;;;;;;50.92;31.63;;;;;;;;;;5123220;28;20043;-85
2022/11/14 14:03:22;;;;;;;54.22;31.38;;;;;;;;;;5038595;28;20045;-86
2022/11/14 14:06:47;;;;;;;54.72;29.90;;;;;;;;;;5057443;28;20461;-88
2022/11/14 14:10:13;;;;;;;25.23;15.57;;;;;;;;;;5129373;28;20047;-84
2022/11/14 14:13:20;;;;;;;20.73;13.07;;;;;;;;;;5125529;28;20035;-87
2022/11/14 14:16:37;;;;;;;21.48;12.73;;;;;;;;;;5121914;28;20035;-87
2022/11/14 14:20:14;;;;;;;84.25;50.13;;;;;;;;;;5122016;28;20047;-82
2022/11/14 14:23:36;;;;;;;33.57;20.33;;;;;;;;;;5118113;28;20044;-84
2022/11/14 14:27:00;;;;;;;52.90;30.08;;;;;;;;;;5105411;28;20629;-85
2022/11/14 14:30:16;;;;;;;22.53;13.90;;;;;;;;;;5106040;28;20036;-86
2022/11/14 14:33:21;;;;;;;28.45;18.40;;;;;;;;;;5118040;28;20055;-86
2022/11/14 14:36:27;;;;;;;27.88;18.40;;;;;;;;;;5119040;28;20127;-85
2022/11/14 14:39:31;;;;;;;34.22;21.67;;;;;;;;;;5115046;28;20043;-84
2022/11/14 14:42:40;;;;;;;36.53;23.33;;;;;;;;;;5115627;28;20409;-84
2022/11/14 14:45:50;;;;;;;59.55;36.30;;;;;;;;;;5116073;28;20039;-84
2022/11/14 14:48:56;;;;;;;166.68;83.93;;;;;;;;;;5103344;28;20047;-84
2022/11/14 14:52:00;;;;;;;186.70;91.82;;;;;;;;;;5116079;28;20040;-85
2022/11/14 14:55:16;;;;;;;134.00;64.65;;;;;;;;;;5104402;28;20040;-84
2022/11/14 14:58:26;;;;;;;78.53;44.45;;;;;;;;;;5102208;28;20044;-84
2022/11/14 15:01:34;;;;;;;186.75;120.22;;;;;;;;;;5115608;28;20039;-84
2022/11/14 15:04:39;;;;;;;109.65;57.90;;;;;;;;;;5115115;28;20040;-84
2022/11/14 15:07:45;;;;;;;85.80;45.97;;;;;;;;;;5114532;28;20047;-84
2022/11/14 15:10:58;;;;;;;92.13;48.13;;;;;;;;;;5104455;28;20035;-80
2022/11/14 15:14:03;;;;;;;142.07;87.22;;;;;;;;;;5124586;28;20048;-81
2022/11/14 15:17:09;;;;;;;204.52;119.03;;;;;;;;;;5114981;28;20048;-77
2022/11/14 15:20:27;;;;;;;160.85;91.55;;;;;;;;;;5114490;28;20488;-78
2022/11/14 15:23:31;;;;;;;189.70;115.10;;;;;;;;;;5114548;28;20039;-78
2022/11/14 15:26:35;;;;;;;212.20;117.40;;;;;;;;;;5114541;28;20036;-79
2022/11/14 15:29:47;;;;;;;192.33;104.37;;;;;;;;;;5114621;28;20035;-78
2022/11/14 15:32:55;;;;;;;191.85;101.25;;;;;;;;;;5114664;28;20043;-77
2022/11/14 15:36:12;;;;;;;251.90;136.10;;;;;;;;;;5114313;28;20051;-77
2022/11/14 15:39:28;;;;;;;279.35;152.73;;;;;;;;;;5114286;28;20477;-77
2022/11/14 15:42:32;;;;;;;300.30;169.57;;;;;;;;;;5114218;28;20044;-77
2022/11/14 15:45:40;;;;;;;348.27;204.63;;;;;;;;;;5114120;28;20036;-77
2022/11/14 15:48:44;;;;;;;315.88;177.38;;;;;;;;;;5114433;28;20039;-77
2022/11/14 15:51:56;;;;;;;261.43;153.40;;;;;;;;;;5113162;28;20382;-75
2022/11/14 15:55:00;;;;;;;247.32;135.60;;;;;;;;;;5114373;28;20749;-77
2022/11/14 15:58:11;;;;;;;324.53;187.67;;;;;;;;;;5116014;28;20036;-78
2022/11/14 16:01:22;;;;;;;361.40;205.02;;;;;;;;;;5113786;28;20389;-77
2022/11/14 16:04:38;;;;;;;339.30;192.02;;;;;;;;;;5114061;28;20047;-77
2022/11/14 16:07:42;;;;;;;259.65;148.57;;;;;;;;;;5114227;28;20051;-76
2022/11/14 16:10:46;;;;;;;204.43;108.80;;;;;;;;;;5114250;28;20040;-76
2022/11/14 16:13:51;;;;;;;219.65;119.72;;;;;;;;;;5114059;28;20039;-77
2022/11/14 16:16:56;;;;;;;211.05;106.53;;;;;;;;;;5114235;28;20039;-80
2022/11/14 16:19:59;;;;;;;;;;;;;;;;;;5089520;28;20051;-86
2022/11/14 16:23:04;;;;;;;258.95;131.75;;;;;;;;;;5114697;28;20242;-85
2022/11/14 16:26:08;;;;;;;291.48;149.88;;;;;;;;;;5115670;28;20457;-86
2022/11/14 16:29:12;;;;;;;320.70;163.75;;;;;;;;;;5115750;28;20043;-88
2022/11/14 16:32:16;;;;;;;332.60;179.77;;;;;;;;;;5117420;28;20036;-89
2022/11/14 16:35:23;;;;;;;344.58;173.07;;;;;;;;;;5120735;28;20035;-84
2022/11/14 16:38:32;;;;;;;360.10;177.57;;;;;;;;;;5106002;28;20039;-88
2022/11/14 16:41:40;;;;;;;317.52;156.38;;;;;;;;;;5103795;28;20040;-88
2022/11/14 16:44:44;;;;;;;215.63;107.90;;;;;;;;;;5122537;28;20036;-86
2022/11/14 16:47:49;;;;;;;199.63;95.47;;;;;;;;;;5102116;28;20051;-85
2022/11/14 16:50:53;;;;;;;212.50;97.25;;;;;;;;;;5137325;28;20036;-86
2022/11/14 16:53:58;;;;;;;232.77;107.72;;;;;;;;;;5115841;28;20031;-86
2022/11/14 16:57:02;;;;;;;368.63;182.60;;;;;;;;;;5114071;28;20378;-86
2022/11/14 17:00:09;;;;;;;324.45;150.90;;;;;;;;;;5112274;28;20035;-86
2022/11/14 17:03:14;;;;;;;308.42;146.07;;;;;;;;;;5115364;28;20065;-86
2022/11/14 17:06:18;;;;;;;313.10;150.75;;;;;;;;;;5119696;28;20043;-86
2022/11/14 17:09:22;;;;;;;321.50;157.93;;;;;;;;;;5109437;28;20053;-86
2022/11/14 17:12:27;;;;;;;295.15;149.50;;;;;;;;;;5118424;28;20039;-86
2022/11/14 17:15:32;;;;;;;305.23;151.63;;;;;;;;;;5117843;28;20036;-85
2022/11/14 17:18:37;;;;;;;300.20;157.90;;;;;;;;;;5117039;28;20370;-86
2022/11/14 17:21:41;;;;;;;228.07;122.93;;;;;;;;;;5116548;28;20043;-85
2022/11/14 17:24:45;;;;;;;205.70;116.32;;;;;;;;;;5104781;28;20040;-87
2022/11/14 17:27:48;;;;;;;117.00;63.80;;;;;;;;;;5125791;28;20039;-87
2022/11/14 17:30:52;;;;;;;123.25;53.03;;;;;;;;;;5115601;28;20052;-87
2022/11/14 17:33:57;;;;;;;131.40;57.40;;;;;;;;;;5116947;28;20039;-86
2022/11/14 17:37:01;;;;;;;140.33;61.73;;;;;;;;;;5118177;28;20473;-86
2022/11/14 17:40:06;;;;;;;191.07;84.85;;;;;;;;;;5104354;28;20040;-86
2022/11/14 17:43:10;;;;;;;195.98;90.45;;;;;;;;;;5104034;28;20400;-86
2022/11/14 17:46:14;;;;;;;191.02;89.55;;;;;;;;;;5116562;28;20043;-86
2022/11/14 17:49:17;;;;;;;211.18;97.30;;;;;;;;;;5109255;28;20047;-86
2022/11/14 17:52:21;;;;;;;212.77;104.40;;;;;;;;;;5111091;28;20043;-86
2022/11/14 17:55:25;;;;;;;214.50;104.47;;;;;;;;;;5123664;28;20047;-85
2022/11/14 17:58:30;;;;;;;196.60;90.03;;;;;;;;;;5123897;28;20040;-86
2022/11/14 18:01:35;;;;;;;296.17;157.23;;;;;;;;;;5123378;28;20047;-86
2022/11/14 18:04:39;;;;;;;262.80;133.05;;;;;;;;;;5111536;28;20044;-86
2022/11/14 18:07:42;;;;;;;267.67;136.10;;;;;;;;;;5124186;28;20037;-85
2022/11/14 18:10:47;;;;;;;373.30;187.32;;;;;;;;;;5126922;28;20035;-86
2022/11/14 18:13:57;;;;;;;307.25;159.07;;;;;;;;;;5104246;28;20048;-85
2022/11/14 18:17:01;;;;;;;292.33;141.63;;;;;;;;;;5104884;28;20388;-85
2022/11/14 18:20:05;;;;;;;333.02;159.75;;;;;;;;;;5118599;28;20047;-84